Time;durP1;ratioP1;P1;durP2;ratioP2;P2;SDS_P1;SDS_P2;PMS_P1;PMS_P2;Temp;Humidity;BMP_temperature;BMP_pressure;BME280_temperature;BME280_humidity;BME280_pressure;Samples;Min_cycle;Max_cycle;Signal;HPM_P1;HPM_P2
2023/10/12 00:01:24;;;;;;;;;8.00;6.50;;;;;;;;5049337;28;9600;-81
2023/10/12 00:03:55;;;;;;;;;7.00;7.00;;;;;;;;5048362;28;8860;-80
2023/10/12 00:06:23;;;;;;;;;6.00;4.75;;;;;;;;5049023;28;8849;-78
2023/10/12 00:08:52;;;;;;;;;6.25;6.25;;;;;;;;5048771;28;8959;-78
2023/10/12 00:11:20;;;;;;;;;5.75;5.75;;;;;;;;5048709;28;8964;-80
2023/10/12 00:13:51;;;;;;;;;5.25;5.25;;;;;;;;5049054;28;8971;-78
2023/10/12 00:16:19;;;;;;;;;5.25;4.25;;;;;;;;5049166;28;8868;-79
2023/10/12 00:18:49;;;;;;;;;7.25;7.00;;;;;;;;5060323;28;8865;-79
2023/10/12 00:21:25;;;;;;;;;8.50;6.00;;;;;;;;5048319;28;9727;-79
2023/10/12 00:23:55;;;;;;;;;5.75;5.75;;;;;;;;5048709;28;8876;-79
2023/10/12 00:26:23;;;;;;;;;3.00;3.00;;;;;;;;5049066;28;8837;-79
2023/10/12 00:28:51;;;;;;;;;0.00;0.00;;;;;;;;5049358;28;8858;-79
2023/10/12 00:31:19;;;;;;;;;7.25;7.25;;;;;;;;5048211;28;8825;-78
2023/10/12 00:33:49;;;;;;;;;6.00;6.00;;;;;;;;5048799;28;8966;-78
2023/10/12 00:36:24;;;;;;;;;5.50;5.00;;;;;;;;5048459;28;8849;-79
2023/10/12 00:38:56;;;;;;;;;5.00;5.00;;;;;;;;5048500;28;8857;-78
2023/10/12 00:41:24;;;;;;;;;5.50;5.50;;;;;;;;5036769;28;8865;-78
2023/10/12 00:43:59;;;;;;;;;5.50;5.50;;;;;;;;5047613;28;9231;-79
2023/10/12 00:46:39;;;;;;;;;6.25;5.25;;;;;;;;5048782;28;9702;-79
2023/10/12 00:49:21;;;;;;;;;5.00;5.00;;;;;;;;5048714;28;8866;-79
2023/10/12 00:51:52;;;;;;;;;7.50;7.00;;;;;;;;5048410;28;8861;-80
2023/10/12 00:54:41;;;;;;;;;6.00;4.50;;;;;;;;5048590;28;8907;-80
2023/10/12 00:57:11;;;;;;;;;7.50;5.75;;;;;;;;5048461;28;8857;-78
2023/10/12 00:59:39;;;;;;;;;7.25;6.00;;;;;;;;5049082;28;8865;-79
2023/10/12 01:02:08;;;;;;;;;4.75;4.75;;;;;;;;5053468;28;8829;-79
2023/10/12 01:04:35;;;;;;;;;6.50;5.00;;;;;;;;5049122;28;8857;-79
2023/10/12 01:07:02;;;;;;;;;7.00;6.00;;;;;;;;5049390;28;8849;-78
2023/10/12 01:09:39;;;;;;;;;6.25;6.25;;;;;;;;5050207;28;8873;-79
2023/10/12 01:12:13;;;;;;;;;10.25;7.00;;;;;;;;5052302;28;8873;-79
2023/10/12 01:14:43;;;;;;;;;8.25;5.75;;;;;;;;5052202;28;8841;-79
2023/10/12 01:17:16;;;;;;;;;7.00;6.50;;;;;;;;5052112;28;8853;-77
2023/10/12 01:19:46;;;;;;;;;6.00;4.25;;;;;;;;5050919;28;8846;-79
2023/10/12 01:22:15;;;;;;;;;4.75;4.75;;;;;;;;5051882;28;8837;-79
2023/10/12 01:24:58;;;;;;;;;4.75;4.75;;;;;;;;5048373;28;8869;-78
2023/10/12 01:27:26;;;;;;;;;6.00;6.00;;;;;;;;5041230;28;8845;-78
2023/10/12 01:29:58;;;;;;;;;7.25;6.50;;;;;;;;5051048;28;8988;-78
2023/10/12 01:32:28;;;;;;;;;5.25;4.25;;;;;;;;5046948;28;8800;-80
2023/10/12 01:34:57;;;;;;;;;6.75;6.00;;;;;;;;5047683;28;8864;-79
2023/10/12 01:37:26;;;;;;;;;6.50;5.00;;;;;;;;5048184;28;9620;-78
2023/10/12 01:39:56;;;;;;;;;7.50;5.75;;;;;;;;5047611;28;8837;-79
2023/10/12 01:42:34;;;;;;;;;5.00;4.25;;;;;;;;5048058;28;8863;-79
2023/10/12 01:45:06;;;;;;;;;5.75;5.75;;;;;;;;5047732;28;8885;-78
2023/10/12 01:47:37;;;;;;;;;6.50;5.75;;;;;;;;5048360;28;8854;-79
2023/10/12 01:50:07;;;;;;;;;6.00;5.25;;;;;;;;5047085;28;8877;-80
2023/10/12 01:52:38;;;;;;;;;7.00;7.00;;;;;;;;5047987;28;8876;-78
2023/10/12 01:55:15;;;;;;;;;6.25;6.25;;;;;;;;5037349;28;9650;-78
2023/10/12 01:57:49;;;;;;;;;8.00;7.25;;;;;;;;5053360;28;8838;-79
2023/10/12 02:00:23;;;;;;;;;7.75;7.75;;;;;;;;5051413;28;8877;-79
2023/10/12 02:03:00;;;;;;;;;6.00;6.00;;;;;;;;5051848;28;8971;-79
2023/10/12 02:05:30;;;;;;;;;6.50;6.50;;;;;;;;5051448;28;8873;-79
2023/10/12 02:08:05;;;;;;;;;8.50;7.00;;;;;;;;5051249;28;8870;-78
2023/10/12 02:10:55;;;;;;;;;7.25;6.50;;;;;;;;5040551;28;8846;-79
2023/10/12 02:13:22;;;;;;;;;10.50;10.50;;;;;;;;5051348;28;8837;-78
2023/10/12 02:15:50;;;;;;;;;10.00;8.00;;;;;;;;5051715;28;8891;-78
2023/10/12 02:18:18;;;;;;;;;11.00;7.50;;;;;;;;5049803;28;8881;-78
2023/10/12 02:21:06;;;;;;;;;9.50;8.00;;;;;;;;5051507;28;8869;-78
2023/10/12 02:23:39;;;;;;;;;6.50;6.50;;;;;;;;5051133;28;8841;-78
2023/10/12 02:26:28;;;;;;;;;6.75;6.75;;;;;;;;5051275;28;8853;-78
2023/10/12 02:29:02;;;;;;;;;9.25;8.00;;;;;;;;5051459;28;8853;-78
2023/10/12 02:31:29;;;;;;;;;6.75;6.75;;;;;;;;5049406;28;8826;-78
2023/10/12 02:33:56;;;;;;;;;7.50;7.50;;;;;;;;5051269;28;8872;-79
2023/10/12 02:36:26;;;;;;;;;6.25;6.25;;;;;;;;5050140;28;8857;-78
2023/10/12 02:38:58;;;;;;;;;7.25;7.25;;;;;;;;5045070;28;8954;-79
2023/10/12 02:41:26;;;;;;;;;6.75;6.25;;;;;;;;5051082;28;8980;-79
2023/10/12 02:44:05;;;;;;;;;5.50;5.50;;;;;;;;5050964;28;8840;-79
2023/10/12 02:46:39;;;;;;;;;8.25;7.25;;;;;;;;5051111;28;8873;-78
2023/10/12 02:49:06;;;;;;;;;7.75;7.75;;;;;;;;5052136;28;8888;-79
2023/10/12 02:51:38;;;;;;;;;6.50;6.50;;;;;;;;5051958;28;8865;-83
2023/10/12 02:54:07;;;;;;;;;8.50;8.50;;;;;;;;5053067;28;8861;-80
2023/10/12 02:56:35;;;;;;;;;7.75;6.25;;;;;;;;5054535;28;8861;-79
2023/10/12 02:59:08;;;;;;;;;8.25;8.00;;;;;;;;5053789;28;8982;-78
2023/10/12 03:01:38;;;;;;;;;7.25;7.25;;;;;;;;5055125;28;8821;-78
2023/10/12 03:04:10;;;;;;;;;12.00;8.25;;;;;;;;5055897;28;8873;-80
2023/10/12 03:06:53;;;;;;;;;8.00;8.00;;;;;;;;5055721;28;8950;-80
2023/10/12 03:09:36;;;;;;;;;8.25;8.25;;;;;;;;5051579;28;8869;-80
2023/10/12 03:12:03;;;;;;;;;7.50;6.75;;;;;;;;5050215;28;8889;-78
2023/10/12 03:14:34;;;;;;;;;8.75;7.75;;;;;;;;5049996;28;8946;-77
2023/10/12 03:17:04;;;;;;;;;10.25;7.25;;;;;;;;5050338;28;8861;-78
2023/10/12 03:19:35;;;;;;;;;9.25;8.00;;;;;;;;5050506;28;8987;-79
2023/10/12 03:22:19;;;;;;;;;7.25;7.25;;;;;;;;5050217;28;8923;-78
2023/10/12 03:24:51;;;;;;;;;7.75;7.00;;;;;;;;5049565;28;8876;-80
2023/10/12 03:27:22;;;;;;;;;4.75;4.75;;;;;;;;5050459;28;8879;-79
2023/10/12 03:30:00;;;;;;;;;7.00;6.75;;;;;;;;5049774;28;8895;-79
2023/10/12 03:32:28;;;;;;;;;9.00;7.50;;;;;;;;5049393;28;8999;-79
2023/10/12 03:34:56;;;;;;;;;7.50;7.50;;;;;;;;5037964;28;8858;-79
2023/10/12 03:40:49;;;;;;;;;9.75;8.25;;;;;;;;5049713;28;8926;-80
2023/10/12 03:42:57;;;;;;;;;5.25;5.25;;;;;;;;5049449;28;8901;-80
2023/10/12 03:45:33;;;;;;;;;12.00;10.25;;;;;;;;5049398;28;8861;-78
2023/10/12 03:53:45;;;;;;;;;10.50;7.25;;;;;;;;5028701;28;8876;-79
2023/10/12 03:56:15;;;;;;;;;11.25;9.75;;;;;;;;5049720;28;8875;-80
2023/10/12 03:58:47;;;;;;;;;6.50;6.50;;;;;;;;5049814;28;8966;-80
2023/10/12 04:01:23;;;;;;;;;6.50;6.50;;;;;;;;5050281;28;8829;-81
2023/10/12 04:03:58;;;;;;;;;7.00;7.00;;;;;;;;5046161;28;8849;-80
2023/10/12 04:06:46;;;;;;;;;10.00;8.00;;;;;;;;5048805;28;8857;-79
2023/10/12 04:09:15;;;;;;;;;8.00;7.50;;;;;;;;5048581;28;9639;-79
2023/10/12 04:11:48;;;;;;;;;9.25;9.25;;;;;;;;5049275;28;8853;-80
2023/10/12 04:14:20;;;;;;;;;8.50;8.00;;;;;;;;5048166;28;9018;-80
2023/10/12 04:17:06;;;;;;;;;7.00;7.00;;;;;;;;5048303;28;8897;-81
2023/10/12 04:19:34;;;;;;;;;9.00;9.00;;;;;;;;5047941;28;8921;-80
2023/10/12 04:22:24;;;;;;;;;8.75;7.75;;;;;;;;5048650;28;8869;-80
2023/10/12 04:24:54;;;;;;;;;7.75;6.00;;;;;;;;5048562;28;8853;-78
2023/10/12 04:27:38;;;;;;;;;8.50;8.50;;;;;;;;5048429;28;8880;-79
2023/10/12 04:30:18;;;;;;;;;12.75;11.25;;;;;;;;5048563;28;8857;-79
2023/10/12 04:32:57;;;;;;;;;8.75;8.75;;;;;;;;5048940;28;8980;-80
2023/10/12 04:35:42;;;;;;;;;11.75;10.00;;;;;;;;5050809;28;8846;-81
2023/10/12 04:38:23;;;;;;;;;8.75;8.75;;;;;;;;5052312;28;8857;-81
2023/10/12 04:43:34;;;;;;;;;9.00;9.00;;;;;;;;5052723;28;8837;-81
2023/10/12 04:46:26;;;;;;;;;11.00;8.75;;;;;;;;5050933;28;8982;-81
2023/10/12 04:49:03;;;;;;;;;11.00;8.75;;;;;;;;5052188;28;8873;-79
2023/10/12 04:51:32;;;;;;;;;9.25;7.75;;;;;;;;5049004;28;8899;-81
2023/10/12 04:54:06;;;;;;;;;5.50;4.75;;;;;;;;5047678;28;8983;-81
2023/10/12 04:56:37;;;;;;;;;11.50;10.00;;;;;;;;5048299;28;8861;-81
2023/10/12 04:59:15;;;;;;;;;7.25;6.75;;;;;;;;5047381;28;8849;-80
2023/10/12 05:05:15;;;;;;;;;12.25;9.00;;;;;;;;5081930;27;13556;-80
2023/10/12 05:07:53;;;;;;;;;9.00;8.75;;;;;;;;5076446;28;8867;-78
2023/10/12 05:10:26;;;;;;;;;9.00;9.00;;;;;;;;5085737;28;9055;-76
2023/10/12 05:12:57;;;;;;;;;10.50;8.00;;;;;;;;5084666;28;8928;-75
2023/10/12 05:15:39;;;;;;;;;8.00;8.00;;;;;;;;5086058;28;8867;-77
2023/10/12 05:18:07;;;;;;;;;7.75;7.75;;;;;;;;5085497;28;8847;-86
2023/10/12 05:20:35;;;;;;;;;7.50;7.25;;;;;;;;5085817;28;8916;-80
2023/10/12 05:23:04;;;;;;;;;7.75;7.75;;;;;;;;5084631;28;8873;-75
2023/10/12 05:25:47;;;;;;;;;8.00;8.00;;;;;;;;5082802;28;8850;-76
2023/10/12 05:28:15;;;;;;;;;9.25;7.75;;;;;;;;5080837;28;8882;-76
2023/10/12 05:30:48;;;;;;;;;9.00;7.50;;;;;;;;5072536;28;8854;-77
2023/10/12 05:33:38;;;;;;;;;10.75;8.00;;;;;;;;5041948;28;8856;-76
2023/10/12 05:36:09;;;;;;;;;9.75;8.25;;;;;;;;5044283;28;8986;-77
2023/10/12 05:38:38;;;;;;;;;9.25;9.25;;;;;;;;5044913;28;8886;-77
2023/10/12 05:41:08;;;;;;;;;8.00;7.50;;;;;;;;5043445;28;8860;-80
2023/10/12 05:43:38;;;;;;;;;8.75;8.50;;;;;;;;5043433;28;8945;-77
2023/10/12 05:46:13;;;;;;;;;7.00;7.00;;;;;;;;5043577;28;8852;-75
2023/10/12 05:48:45;;;;;;;;;9.75;8.75;;;;;;;;5043388;28;8863;-83
2023/10/12 05:51:19;;;;;;;;;8.50;8.00;;;;;;;;5034377;28;8855;-76
2023/10/12 05:53:48;;;;;;;;;7.50;7.50;;;;;;;;5044177;28;8836;-78
2023/10/12 05:56:17;;;;;;;;;14.00;9.00;;;;;;;;5044852;28;8876;-76
2023/10/12 05:58:47;;;;;;;;;11.00;9.75;;;;;;;;5045417;28;8904;-76
2023/10/12 06:01:31;;;;;;;;;11.00;8.50;;;;;;;;5046821;28;8943;-76
2023/10/12 06:03:59;;;;;;;;;10.25;8.50;;;;;;;;5058449;28;8884;-75
2023/10/12 06:06:31;;;;;;;;;8.00;6.25;;;;;;;;5063958;28;8866;-75
2023/10/12 06:08:59;;;;;;;;;7.25;7.25;;;;;;;;5052279;28;8846;-76
2023/10/12 06:11:26;;;;;;;;;9.75;9.25;;;;;;;;5063745;28;8884;-76
2023/10/12 06:13:53;;;;;;;;;9.75;9.75;;;;;;;;5062937;28;8851;-78
2023/10/12 06:16:21;;;;;;;;;9.75;8.00;;;;;;;;5048955;28;8851;-79
2023/10/12 06:18:49;;;;;;;;;9.75;9.25;;;;;;;;5052295;28;8858;-79
2023/10/12 06:21:18;;;;;;;;;10.50;10.50;;;;;;;;5052332;28;8863;-79
2023/10/12 06:23:50;;;;;;;;;8.50;7.50;;;;;;;;5053064;28;8881;-78
2023/10/12 06:26:30;;;;;;;;;9.50;7.75;;;;;;;;5051921;28;8859;-77
2023/10/12 06:28:58;;;;;;;;;6.75;6.75;;;;;;;;5055867;28;9001;-77
2023/10/12 06:31:25;;;;;;;;;9.67;9.67;;;;;;;;5049236;28;8948;-80
2023/10/12 06:33:55;;;;;;;;;18.00;11.50;;;;;;;;5048231;28;9618;-82
2023/10/12 06:36:36;;;;;;;;;13.00;13.00;;;;;;;;5051933;28;8866;-89
2023/10/12 06:42:25;;;;;;;;;14.00;12.25;;;;;;;;5054950;28;8889;-78
2023/10/12 06:44:57;;;;;;;;;23.75;19.25;;;;;;;;5051907;28;8862;-77
2023/10/12 06:47:41;;;;;;;;;18.75;15.00;;;;;;;;5060166;28;8935;-78
2023/10/12 06:50:16;;;;;;;;;17.50;17.50;;;;;;;;5060111;28;8858;-77
2023/10/12 06:52:44;;;;;;;;;19.50;17.25;;;;;;;;5052275;28;8863;-83
2023/10/12 06:55:21;;;;;;;;;22.00;19.25;;;;;;;;5049738;28;8870;-85
2023/10/12 06:57:54;;;;;;;;;16.75;14.00;;;;;;;;5040718;28;8909;-79
2023/10/12 07:00:59;;;;;;;;;14.00;14.00;;;;;;;;5034614;28;9582;-79
2023/10/12 07:03:24;;;;;;;;;19.75;16.25;;;;;;;;5048343;28;8839;-82
2023/10/12 07:05:53;;;;;;;;;15.25;12.75;;;;;;;;5048581;28;8850;-82
2023/10/12 07:08:21;;;;;;;;;13.75;12.25;;;;;;;;5048805;28;8987;-82
2023/10/12 07:10:58;;;;;;;;;10.00;10.00;;;;;;;;5048681;28;8981;-82
2023/10/12 07:13:26;;;;;;;;;13.25;13.00;;;;;;;;5047229;28;9609;-77
2023/10/12 07:15:54;;;;;;;;;15.00;12.00;;;;;;;;5048463;28;8862;-77
2023/10/12 07:18:22;;;;;;;;;11.25;11.25;;;;;;;;5049126;28;8850;-81
2023/10/12 07:20:49;;;;;;;;;17.25;14.75;;;;;;;;5049792;28;8850;-79
2023/10/12 07:23:18;;;;;;;;;15.00;11.50;;;;;;;;5047645;28;8866;-79
2023/10/12 07:25:51;;;;;;;;;14.25;14.25;;;;;;;;5049240;28;8839;-79
2023/10/12 07:28:25;;;;;;;;;10.00;9.75;;;;;;;;5050347;28;8842;-75
2023/10/12 07:31:23;;;;;;;;;11.50;11.50;;;;;;;;5045384;28;8770;-75
2023/10/12 07:34:00;;;;;;;;;11.25;11.00;;;;;;;;5048867;28;9034;-75
2023/10/12 07:36:52;;;;;;;;;16.00;13.00;;;;;;;;5048622;28;8875;-74
2023/10/12 07:39:21;;;;;;;;;11.75;11.00;;;;;;;;5047343;28;8862;-77
2023/10/12 07:41:56;;;;;;;;;12.50;11.00;;;;;;;;5048171;28;8866;-76
2023/10/12 07:44:27;;;;;;;;;12.75;12.75;;;;;;;;5048266;28;8904;-76
2023/10/12 07:46:56;;;;;;;;;10.00;10.00;;;;;;;;5048675;28;8939;-76
2023/10/12 07:49:37;;;;;;;;;15.50;14.75;;;;;;;;5046596;28;8928;-76
2023/10/12 07:52:09;;;;;;;;;15.50;12.75;;;;;;;;5048454;28;9213;-76
2023/10/12 07:54:58;;;;;;;;;10.25;10.25;;;;;;;;5038908;28;8877;-75
2023/10/12 07:57:30;;;;;;;;;14.50;11.75;;;;;;;;5047429;28;8859;-76
2023/10/12 08:05:56;;;;;;;;;15.50;15.00;;;;;;;;5052002;28;9626;-76
2023/10/12 08:08:37;;;;;;;;;14.00;12.25;;;;;;;;5051852;28;8859;-81
2023/10/12 08:11:27;;;;;;;;;14.25;14.25;;;;;;;;5050367;28;8962;-84
2023/10/12 08:13:55;;;;;;;;;10.50;9.25;;;;;;;;5043933;28;8876;-79
2023/10/12 08:16:37;;;;;;;;;18.25;16.25;;;;;;;;5042169;28;9710;-85
2023/10/12 08:21:58;;;;;;;;;18.00;13.75;;;;;;;;5042410;28;8866;-85
2023/10/12 08:24:26;;;;;;;;;15.75;13.00;;;;;;;;5049749;28;8864;-82
2023/10/12 08:27:00;;;;;;;;;13.00;13.00;;;;;;;;5048304;28;8941;-85
2023/10/12 08:32:27;;;;;;;;;12.75;12.75;;;;;;;;5036709;28;8801;-84
2023/10/12 08:35:30;;;;;;;;;13.00;13.00;;;;;;;;5036491;28;8857;-81
2023/10/12 08:38:12;;;;;;;;;11.25;11.25;;;;;;;;5048019;28;8878;-83
2023/10/12 08:41:18;;;;;;;;;17.00;14.50;;;;;;;;5046233;28;9638;-74
2023/10/12 08:43:43;;;;;;;;;14.00;14.00;;;;;;;;5048276;28;8869;-77
2023/10/12 08:46:22;;;;;;;;;12.00;11.50;;;;;;;;5047072;28;9648;-75
2023/10/12 08:49:05;;;;;;;;;13.75;13.25;;;;;;;;5047213;28;8858;-75
2023/10/12 08:51:35;;;;;;;;;13.50;13.00;;;;;;;;5046462;28;8882;-74
2023/10/12 08:54:07;;;;;;;;;13.75;12.25;;;;;;;;5048063;28;8870;-83
2023/10/12 08:56:37;;;;;;;;;14.50;12.00;;;;;;;;5046854;28;8977;-74
2023/10/12 08:59:08;;;;;;;;;11.75;11.75;;;;;;;;5046045;28;8847;-76
2023/10/12 09:01:41;;;;;;;;;13.25;10.75;;;;;;;;5046442;28;8831;-75
2023/10/12 09:04:12;;;;;;;;;13.75;12.50;;;;;;;;5047402;28;8839;-84
2023/10/12 09:07:03;;;;;;;;;17.50;13.00;;;;;;;;5046912;28;8989;-74
2023/10/12 09:12:19;;;;;;;;;14.25;14.25;;;;;;;;5045707;28;8823;-74
2023/10/12 09:14:47;;;;;;;;;17.75;16.25;;;;;;;;5045880;28;8871;-74
2023/10/12 09:17:32;;;;;;;;;11.00;10.75;;;;;;;;5047537;28;8965;-76
2023/10/12 09:22:42;;;;;;;;;20.00;17.00;;;;;;;;5031823;28;8865;-76
2023/10/12 09:25:26;;;;;;;;;18.50;18.50;;;;;;;;5047828;28;8965;-78
2023/10/12 09:27:58;;;;;;;;;17.75;16.50;;;;;;;;5046969;28;8875;-75
2023/10/12 09:30:27;;;;;;;;;22.00;21.00;;;;;;;;5047498;28;9505;-74
2023/10/12 09:33:05;;;;;;;;;14.75;14.75;;;;;;;;5034721;28;9035;-74
2023/10/12 09:35:40;;;;;;;;;19.00;18.00;;;;;;;;5047814;28;8977;-74
2023/10/12 09:38:18;;;;;;;;;12.75;11.50;;;;;;;;5046992;28;9371;-75
2023/10/12 09:40:52;;;;;;;;;14.25;14.25;;;;;;;;5048863;28;8854;-76
2023/10/12 09:43:20;;;;;;;;;16.50;12.25;;;;;;;;5051803;28;8862;-74
2023/10/12 09:45:58;;;;;;;;;15.75;15.75;;;;;;;;5049835;28;8865;-74
2023/10/12 09:48:38;;;;;;;;;16.50;14.00;;;;;;;;5051672;28;8850;-77
2023/10/12 09:51:15;;;;;;;;;16.00;15.00;;;;;;;;5054201;28;8839;-79
2023/10/12 09:53:53;;;;;;;;;15.00;14.75;;;;;;;;5051733;28;8850;-78
2023/10/12 09:56:24;;;;;;;;;14.25;13.50;;;;;;;;5051315;28;8862;-75
2023/10/12 09:58:52;;;;;;;;;15.75;14.50;;;;;;;;5049626;28;8835;-75
2023/10/12 10:01:29;;;;;;;;;17.25;14.00;;;;;;;;5038960;28;8799;-87
2023/10/12 10:04:27;;;;;;;;;16.50;14.25;;;;;;;;5049377;28;8846;-78
2023/10/12 10:06:51;;;;;;;;;14.50;14.50;;;;;;;;5048710;28;8886;-76
2023/10/12 10:09:36;;;;;;;;;15.00;15.00;;;;;;;;5051039;28;8844;-74
2023/10/12 10:12:07;;;;;;;;;15.50;14.25;;;;;;;;5048557;28;8843;-74
2023/10/12 10:14:39;;;;;;;;;15.50;15.25;;;;;;;;5050518;28;8979;-76
2023/10/12 10:17:13;;;;;;;;;13.25;12.25;;;;;;;;5040923;28;8836;-76
2023/10/12 10:19:51;;;;;;;;;13.75;12.00;;;;;;;;5051551;28;8867;-75
2023/10/12 10:22:21;;;;;;;;;15.00;14.25;;;;;;;;5041018;28;8842;-75
2023/10/12 10:24:55;;;;;;;;;14.25;14.25;;;;;;;;5041843;28;8826;-75
2023/10/12 10:27:34;;;;;;;;;17.75;16.00;;;;;;;;5047133;28;8875;-78
2023/10/12 10:30:23;;;;;;;;;19.00;16.25;;;;;;;;5044539;28;9575;-85
2023/10/12 10:33:07;;;;;;;;;15.00;13.25;;;;;;;;5048258;28;8816;-82
2023/10/12 10:36:10;;;;;;;;;12.75;12.00;;;;;;;;5050334;28;8817;-77
2023/10/12 10:38:49;;;;;;;;;14.00;13.50;;;;;;;;5048406;28;8862;-76
2023/10/12 10:41:22;;;;;;;;;18.00;15.75;;;;;;;;5050280;28;8876;-79
2023/10/12 10:43:52;;;;;;;;;15.25;12.75;;;;;;;;5038326;28;8866;-74
2023/10/12 10:46:26;;;;;;;;;18.75;17.00;;;;;;;;5048886;28;9641;-74
2023/10/12 10:48:53;;;;;;;;;15.25;13.50;;;;;;;;5048462;28;8971;-75
2023/10/12 10:51:27;;;;;;;;;15.50;15.50;;;;;;;;5046031;28;8965;-77
2023/10/12 10:53:55;;;;;;;;;16.25;13.75;;;;;;;;5044700;28;8965;-74
2023/10/12 10:56:34;;;;;;;;;13.75;13.75;;;;;;;;5048015;28;8852;-74
2023/10/12 10:59:01;;;;;;;;;17.25;17.25;;;;;;;;5036585;28;8937;-75
2023/10/12 11:01:28;;;;;;;;;12.00;12.00;;;;;;;;5039231;28;8825;-75
2023/10/12 11:03:58;;;;;;;;;15.00;13.50;;;;;;;;5041542;28;9577;-78
2023/10/12 11:06:28;;;;;;;;;15.25;15.25;;;;;;;;5049480;28;8843;-75
2023/10/12 11:09:05;;;;;;;;;19.00;15.00;;;;;;;;5037277;28;8894;-75
2023/10/12 11:11:44;;;;;;;;;15.80;15.80;;;;;;;;5047713;28;8882;-74
2023/10/12 11:14:14;;;;;;;;;13.20;13.20;;;;;;;;5047432;28;8844;-77
2023/10/12 11:16:45;;;;;;;;;14.00;14.00;;;;;;;;5048960;28;8824;-76
2023/10/12 11:19:13;;;;;;;;;17.00;13.60;;;;;;;;5049675;28;8844;-74
2023/10/12 11:21:51;;;;;;;;;13.20;13.20;;;;;;;;5047375;28;8878;-75
2023/10/12 11:24:22;;;;;;;;;14.80;13.00;;;;;;;;5046566;28;8863;-75
2023/10/12 11:26:52;;;;;;;;;14.20;12.60;;;;;;;;5047281;28;8882;-74
2023/10/12 11:29:19;;;;;;;;;16.00;14.00;;;;;;;;5052402;28;8856;-76
2023/10/12 11:32:08;;;;;;;;;16.00;16.00;;;;;;;;5043851;28;8810;-77
2023/10/12 11:34:35;;;;;;;;;15.20;14.60;;;;;;;;5046919;28;8956;-75
2023/10/12 11:37:04;;;;;;;;;14.50;12.75;;;;;;;;5048429;28;8966;-78
2023/10/12 11:39:41;;;;;;;;;14.50;14.50;;;;;;;;5047979;28;9678;-75
2023/10/12 11:42:12;;;;;;;;;27.25;22.25;;;;;;;;5047614;28;9007;-75
2023/10/12 11:44:43;;;;;;;;;23.75;23.75;;;;;;;;5036858;28;8856;-75
2023/10/12 11:47:13;;;;;;;;;21.25;21.25;;;;;;;;5048105;28;8887;-74
2023/10/12 11:49:50;;;;;;;;;22.50;22.50;;;;;;;;5048476;28;8874;-74
2023/10/12 11:52:29;;;;;;;;;20.00;20.00;;;;;;;;5048233;28;8844;-75
2023/10/12 11:55:02;;;;;;;;;21.75;21.75;;;;;;;;5048118;28;8855;-77
2023/10/12 11:57:32;;;;;;;;;23.25;19.50;;;;;;;;5047526;28;8859;-74
2023/10/12 12:00:07;;;;;;;;;25.75;23.50;;;;;;;;5048100;28;9034;-77
2023/10/12 12:02:35;;;;;;;;;24.25;21.50;;;;;;;;5037113;28;8815;-73
2023/10/12 12:05:04;;;;;;;;;24.50;23.25;;;;;;;;5047285;28;8863;-80
2023/10/12 12:07:33;;;;;;;;;22.75;21.75;;;;;;;;5048058;28;8855;-73
2023/10/12 12:10:03;;;;;;;;;27.00;23.50;;;;;;;;5046855;28;8944;-73
2023/10/12 12:12:30;;;;;;;;;22.50;22.50;;;;;;;;5047739;28;8859;-74
2023/10/12 12:14:57;;;;;;;;;24.00;23.00;;;;;;;;5047560;28;8839;-74
2023/10/12 12:17:26;;;;;;;;;19.25;19.25;;;;;;;;5048028;28;8894;-73
2023/10/12 12:19:53;;;;;;;;;21.75;20.50;;;;;;;;5047926;28;8869;-73
2023/10/12 12:22:23;;;;;;;;;24.00;22.50;;;;;;;;5047996;28;8863;-74
2023/10/12 12:24:51;;;;;;;;;19.50;19.50;;;;;;;;5047547;28;8835;-80
2023/10/12 12:30:23;;;;;;;;;10.60;10.40;;;;;;;;5078459;28;13621;-73
2023/10/12 12:32:51;;;;;;;;;16.20;13.80;;;;;;;;5043974;28;8847;-72
2023/10/12 12:35:19;;;;;;;;;17.75;16.25;;;;;;;;5045272;28;8852;-72
2023/10/12 12:37:46;;;;;;;;;14.25;12.25;;;;;;;;5038410;28;8852;-72
2023/10/12 12:40:29;;;;;;;;;22.00;17.50;;;;;;;;5045339;28;8872;-74
2023/10/12 12:42:57;;;;;;;;;18.50;15.50;;;;;;;;5045372;28;8857;-73
2023/10/12 12:45:30;;;;;;;;;16.00;16.00;;;;;;;;5044800;28;8892;-74
2023/10/12 12:47:57;;;;;;;;;16.25;16.25;;;;;;;;5033740;28;8844;-73
2023/10/12 12:50:28;;;;;;;;;18.50;15.50;;;;;;;;5043970;28;8853;-75
2023/10/12 12:52:55;;;;;;;;;17.25;17.25;;;;;;;;5044360;28;8887;-73
2023/10/12 12:55:27;;;;;;;;;20.00;20.00;;;;;;;;5044199;28;8879;-73
2023/10/12 12:57:56;;;;;;;;;22.75;19.50;;;;;;;;5044446;28;8852;-73
2023/10/12 13:00:23;;;;;;;;;25.75;24.25;;;;;;;;5045298;28;8863;-75
2023/10/12 13:02:52;;;;;;;;;16.50;16.50;;;;;;;;5047047;28;8863;-75
2023/10/12 13:05:19;;;;;;;;;19.00;18.25;;;;;;;;5046911;28;8852;-73
2023/10/12 13:07:47;;;;;;;;;21.50;17.75;;;;;;;;5047528;28;8982;-74
2023/10/12 13:10:14;;;;;;;;;18.25;16.75;;;;;;;;5047508;28;8867;-73
2023/10/12 13:12:44;;;;;;;;;19.80;17.20;;;;;;;;5047958;28;9318;-73
2023/10/12 13:15:12;;;;;;;;;18.80;17.40;;;;;;;;5045037;28;8876;-73
2023/10/12 13:17:40;;;;;;;;;19.80;18.20;;;;;;;;5043784;28;8886;-73
2023/10/12 13:20:18;;;;;;;;;19.20;17.60;;;;;;;;5042950;28;8871;-74
2023/10/12 13:22:45;;;;;;;;;17.00;17.00;;;;;;;;5043322;28;9650;-73
2023/10/12 13:25:14;;;;;;;;;13.40;13.40;;;;;;;;5043892;28;8860;-73
2023/10/12 13:27:42;;;;;;;;;18.80;14.80;;;;;;;;5043094;28;10156;-74
2023/10/12 13:30:11;;;;;;;;;16.60;16.60;;;;;;;;5043342;28;8891;-74
2023/10/12 13:32:38;;;;;;;;;18.00;15.20;;;;;;;;5045740;28;8858;-73
2023/10/12 13:35:17;;;;;;;;;18.60;18.20;;;;;;;;5043327;28;8892;-73
2023/10/12 13:37:46;;;;;;;;;16.40;14.40;;;;;;;;5036501;28;8865;-74
2023/10/12 13:40:16;;;;;;;;;18.20;18.20;;;;;;;;5038130;28;8992;-74
2023/10/12 13:42:44;;;;;;;;;18.20;16.20;;;;;;;;5030426;28;8951;-73
2023/10/12 13:45:12;;;;;;;;;20.00;17.80;;;;;;;;5030239;28;9966;-73
2023/10/12 13:47:41;;;;;;;;;19.00;17.40;;;;;;;;5029012;28;8869;-73
2023/10/12 13:50:10;;;;;;;;;19.60;18.00;;;;;;;;5029856;28;8870;-74
2023/10/12 13:52:38;;;;;;;;;19.80;18.00;;;;;;;;5029563;28;8842;-74
2023/10/12 13:55:11;;;;;;;;;19.20;17.20;;;;;;;;5029764;28;8857;-73
2023/10/12 13:57:50;;;;;;;;;18.20;16.60;;;;;;;;5029828;28;8858;-73
2023/10/12 14:00:22;;;;;;;;;18.60;17.00;;;;;;;;5029047;28;8911;-74
2023/10/12 14:02:52;;;;;;;;;15.60;15.60;;;;;;;;5029664;28;9646;-73
2023/10/12 14:05:24;;;;;;;;;20.80;19.00;;;;;;;;5029683;28;8880;-73
2023/10/12 14:07:53;;;;;;;;;19.40;17.60;;;;;;;;5029479;28;8873;-73
2023/10/12 14:10:22;;;;;;;;;17.60;14.20;;;;;;;;5029915;28;8852;-73
2023/10/12 14:12:53;;;;;;;;;18.00;18.00;;;;;;;;5029618;28;8857;-73
2023/10/12 14:15:21;;;;;;;;;14.20;14.20;;;;;;;;5029286;28;8833;-74
2023/10/12 14:17:54;;;;;;;;;15.60;15.40;;;;;;;;5029311;28;8866;-73
2023/10/12 14:20:26;;;;;;;;;15.40;13.60;;;;;;;;5018220;28;8880;-74
2023/10/12 14:22:54;;;;;;;;;17.40;16.80;;;;;;;;5028863;28;8862;-74
2023/10/12 14:25:28;;;;;;;;;14.40;13.60;;;;;;;;5029758;28;8842;-76
2023/10/12 14:27:59;;;;;;;;;13.20;13.20;;;;;;;;5028661;28;8882;-73
2023/10/12 14:30:29;;;;;;;;;15.00;15.00;;;;;;;;5028788;28;8796;-73
2023/10/12 14:32:57;;;;;;;;;16.60;14.00;;;;;;;;5028926;28;8853;-75
2023/10/12 14:35:27;;;;;;;;;15.60;14.20;;;;;;;;5029571;28;9656;-75
2023/10/12 14:37:55;;;;;;;;;24.20;18.00;;;;;;;;5029785;28;8865;-73
2023/10/12 14:40:29;;;;;;;;;18.00;16.00;;;;;;;;5031585;28;8885;-73
2023/10/12 14:42:58;;;;;;;;;15.20;13.80;;;;;;;;5031535;28;8977;-75
2023/10/12 14:45:25;;;;;;;;;13.20;13.20;;;;;;;;5031684;28;8869;-73
2023/10/12 14:47:56;;;;;;;;;17.40;16.60;;;;;;;;5020051;28;8852;-74
2023/10/12 14:50:24;;;;;;;;;14.80;14.80;;;;;;;;5032981;28;8877;-77
2023/10/12 14:52:53;;;;;;;;;12.40;8.60;;;;;;;;5032269;28;9625;-73
2023/10/12 14:55:24;;;;;;;;;16.80;15.60;;;;;;;;5029020;28;9527;-78
2023/10/12 14:57:52;;;;;;;;;14.60;14.00;;;;;;;;5029110;28;8845;-73
2023/10/12 15:00:23;;;;;;;;;12.40;12.00;;;;;;;;5027928;28;8837;-73
2023/10/12 15:02:51;;;;;;;;;13.60;13.00;;;;;;;;5029037;28;9639;-73
2023/10/12 15:05:19;;;;;;;;;15.20;13.20;;;;;;;;5028668;28;8841;-73
2023/10/12 15:07:48;;;;;;;;;9.80;9.80;;;;;;;;5028675;28;8854;-73
2023/10/12 15:10:17;;;;;;;;;13.60;12.00;;;;;;;;5028820;28;8897;-73
2023/10/12 15:12:45;;;;;;;;;10.40;10.00;;;;;;;;5028802;28;8865;-74
2023/10/12 15:15:18;;;;;;;;;14.40;14.20;;;;;;;;5028195;28;8858;-74
2023/10/12 15:17:46;;;;;;;;;14.00;13.80;;;;;;;;5028473;28;8896;-83
2023/10/12 15:20:16;;;;;;;;;14.00;13.40;;;;;;;;5028900;28;10030;-74
2023/10/12 15:22:47;;;;;;;;;11.60;11.60;;;;;;;;5028523;28;8853;-73
2023/10/12 15:25:16;;;;;;;;;13.20;12.00;;;;;;;;5028642;28;8869;-76
2023/10/12 15:27:44;;;;;;;;;12.60;11.20;;;;;;;;5027795;28;8826;-75
2023/10/12 15:30:14;;;;;;;;;12.00;12.00;;;;;;;;5027951;28;8880;-74
2023/10/12 15:32:42;;;;;;;;;9.40;9.40;;;;;;;;5027393;28;8862;-76
2023/10/12 15:35:11;;;;;;;;;14.00;12.20;;;;;;;;5029398;28;8969;-80
2023/10/12 15:37:45;;;;;;;;;13.20;11.20;;;;;;;;5023496;28;8846;-80
2023/10/12 15:40:17;;;;;;;;;13.00;11.00;;;;;;;;5030086;28;8866;-76
2023/10/12 15:42:46;;;;;;;;;12.00;11.00;;;;;;;;5027689;28;8841;-82
2023/10/12 15:45:15;;;;;;;;;11.60;10.40;;;;;;;;5028998;28;8868;-75
2023/10/12 15:47:43;;;;;;;;;13.80;13.80;;;;;;;;5027657;28;8869;-73
2023/10/12 15:50:11;;;;;;;;;11.40;11.40;;;;;;;;5027630;28;8868;-74
2023/10/12 15:52:42;;;;;;;;;16.60;12.00;;;;;;;;5027175;28;8862;-72